Time;durP1;ratioP1;P1;durP2;ratioP2;P2;SDS_P1;SDS_P2;PMS_P1;PMS_P2;Temp;Humidity;BMP_temperature;BMP_pressure;BME280_temperature;BME280_humidity;BME280_pressure;Samples;Min_cycle;Max_cycle;Signal;HPM_P1;HPM_P2
2022/10/28 00:00:52;;;;;;;5.83;3.30;;;15.20;99.90;;;;;;4149869;28;20287;-78
2022/10/28 00:02:54;;;;;;;6.10;3.13;;;15.20;99.90;;;;;;4154561;28;20245;-77
2022/10/28 00:04:57;;;;;;;4.77;3.13;;;15.30;99.90;;;;;;4146537;28;20215;-80
2022/10/28 00:06:59;;;;;;;4.40;2.90;;;15.30;99.90;;;;;;4140820;28;20299;-78
2022/10/28 00:09:01;;;;;;;5.07;3.20;;;15.30;99.90;;;;;;4150765;28;20206;-80
2022/10/28 00:11:05;;;;;;;5.10;2.87;;;15.30;99.90;;;;;;4149241;28;20225;-79
2022/10/28 00:13:07;;;;;;;4.50;2.80;;;15.30;99.90;;;;;;4144395;28;20305;-79
2022/10/28 00:15:09;;;;;;;6.33;3.03;;;15.30;99.90;;;;;;4161312;28;20216;-79
2022/10/28 00:17:11;;;;;;;4.77;3.13;;;15.30;99.90;;;;;;4144045;28;20752;-79
2022/10/28 00:19:14;;;;;;;3.93;2.83;;;15.40;99.90;;;;;;4142923;28;20217;-78
2022/10/28 00:21:19;;;;;;;4.33;3.10;;;15.30;99.90;;;;;;4141010;28;20219;-78
2022/10/28 00:23:21;;;;;;;4.17;3.00;;;15.30;99.90;;;;;;4143046;28;20690;-77
2022/10/28 00:25:23;;;;;;;4.53;3.00;;;15.30;99.90;;;;;;4141429;28;20238;-77
2022/10/28 00:27:25;;;;;;;4.77;2.97;;;15.30;99.90;;;;;;4139272;28;20209;-77
2022/10/28 00:29:27;;;;;;;7.40;2.90;;;15.40;99.90;;;;;;4149181;28;20742;-78
2022/10/28 00:31:30;;;;;;;4.90;2.60;;;15.40;99.90;;;;;;4140557;28;20782;-78
2022/10/28 00:33:32;;;;;;;5.03;2.90;;;15.40;99.90;;;;;;4146292;28;20212;-77
2022/10/28 00:35:34;;;;;;;6.93;2.90;;;15.40;99.90;;;;;;4140437;28;20214;-78
2022/10/28 00:37:37;;;;;;;6.27;3.37;;;15.40;99.90;;;;;;4143157;28;20267;-77
2022/10/28 00:39:39;;;;;;;5.13;3.03;;;15.40;99.90;;;;;;4141420;28;20210;-77
2022/10/28 00:41:42;;;;;;;4.03;2.73;;;15.40;99.90;;;;;;4142104;28;20224;-77
2022/10/28 00:43:45;;;;;;;3.70;2.87;;;15.40;99.90;;;;;;4137041;28;20216;-78
2022/10/28 00:45:47;;;;;;;3.93;2.80;;;15.40;99.90;;;;;;4143116;28;20320;-77
2022/10/28 00:47:54;;;;;;;5.83;2.73;;;15.40;99.90;;;;;;4144710;28;20225;-79
2022/10/28 00:50:01;;;;;;;4.23;2.67;;;15.40;99.90;;;;;;4140588;28;20308;-78
2022/10/28 00:52:07;;;;;;;5.40;3.10;;;15.40;99.90;;;;;;4142277;28;20254;-77
2022/10/28 00:54:11;;;;;;;2.77;2.47;;;15.40;99.90;;;;;;4141834;28;20695;-79
2022/10/28 00:56:13;;;;;;;3.60;2.43;;;15.40;99.90;;;;;;4148058;28;20203;-78
2022/10/28 00:58:16;;;;;;;4.13;2.90;;;15.40;99.90;;;;;;4149104;28;20249;-79
2022/10/28 01:00:18;;;;;;;5.03;2.67;;;15.40;99.90;;;;;;4162556;28;20237;-78
2022/10/28 01:02:20;;;;;;;3.83;2.20;;;15.50;99.90;;;;;;4142775;28;20231;-79
2022/10/28 01:04:23;;;;;;;4.10;2.20;;;15.50;99.90;;;;;;4147137;28;20301;-78
2022/10/28 01:06:27;;;;;;;5.10;2.47;;;15.50;99.90;;;;;;4139202;28;20220;-78
2022/10/28 01:08:29;;;;;;;4.33;2.60;;;15.40;99.90;;;;;;4146817;28;20607;-78
2022/10/28 01:10:45;;;;;;;4.77;2.47;;;15.50;99.90;;;;;;4147824;28;20254;-77
2022/10/28 01:12:58;;;;;;;3.60;2.50;;;15.50;99.90;;;;;;4143258;28;20206;-77
2022/10/28 01:15:06;;;;;;;3.90;2.70;;;15.40;99.90;;;;;;4161138;22;20338;-80
2022/10/28 01:17:22;;;;;;;3.37;2.47;;;15.40;99.90;;;;;;4133125;28;20229;-78
2022/10/28 01:19:53;;;;;;;4.03;2.53;;;15.50;99.90;;;;;;4131086;28;20218;-78
2022/10/28 01:22:19;;;;;;;4.87;2.70;;;15.50;99.90;;;;;;4123744;28;20235;-77
2022/10/28 01:24:36;;;;;;;4.87;2.50;;;15.50;99.90;;;;;;4131720;28;20210;-78
2022/10/28 01:27:07;;;;;;;4.67;2.70;;;15.50;99.90;;;;;;4128557;28;20242;-79
2022/10/28 01:29:40;;;;;;;4.53;2.33;;;15.50;99.90;;;;;;4129604;28;20303;-78
2022/10/28 01:31:45;;;;;;;4.20;3.13;;;15.50;99.90;;;;;;4119180;28;20305;-79
2022/10/28 01:33:52;;;;;;;3.43;2.20;;;15.50;99.90;;;;;;4130800;28;20203;-77
2022/10/28 01:35:57;;;;;;;3.80;2.70;;;15.50;99.90;;;;;;4134007;28;20238;-79
2022/10/28 01:38:14;;;;;;;9.07;3.20;;;15.50;99.90;;;;;;4133268;28;20680;-77
2022/10/28 01:40:23;;;;;;;7.43;2.87;;;15.50;99.90;;;;;;4131762;28;20218;-77
2022/10/28 01:42:29;;;;;;;3.00;2.40;;;15.50;99.90;;;;;;4132653;28;20289;-79
2022/10/28 01:44:38;;;;;;;4.93;2.90;;;15.50;99.90;;;;;;4132374;28;20583;-78
2022/10/28 01:46:47;;;;;;;7.03;3.53;;;15.50;99.90;;;;;;4131894;28;20212;-78
2022/10/28 01:48:53;;;;;;;7.37;3.27;;;15.60;99.90;;;;;;4133319;28;20208;-77
2022/10/28 01:51:00;;;;;;;7.33;3.50;;;15.50;99.90;;;;;;4137558;28;20221;-80
2022/10/28 01:53:07;;;;;;;6.57;3.40;;;15.50;99.90;;;;;;4135310;28;20846;-79
2022/10/28 01:55:15;;;;;;;6.17;3.23;;;15.50;99.90;;;;;;4134800;28;20233;-79
2022/10/28 01:57:21;;;;;;;6.43;3.23;;;15.40;99.90;;;;;;4135072;28;20297;-78
2022/10/28 01:59:25;;;;;;;5.63;3.27;;;15.50;99.90;;;;;;4139274;28;20298;-80
2022/10/28 02:01:29;;;;;;;5.80;3.33;;;15.50;99.90;;;;;;4146094;28;20237;-79
2022/10/28 02:03:32;;;;;;;6.30;3.63;;;15.50;99.90;;;;;;4143873;28;20235;-78
2022/10/28 02:05:41;;;;;;;8.37;3.47;;;15.40;99.90;;;;;;4140473;28;20255;-79
2022/10/28 02:07:43;;;;;;;7.20;3.73;;;15.50;99.90;;;;;;4133219;28;20328;-79
2022/10/28 02:10:02;;;;;;;6.43;3.40;;;15.40;99.90;;;;;;4139926;28;20203;-80
2022/10/28 02:12:24;;;;;;;6.83;3.57;;;15.40;99.90;;;;;;4139176;28;20602;-80
2022/10/28 02:14:48;;;;;;;8.23;3.37;;;15.80;99.90;;;;;;4133037;28;20232;-79
2022/10/28 02:16:54;;;;;;;11.87;4.03;;;15.40;99.90;;;;;;4135560;28;20201;-79
2022/10/28 02:19:03;;;;;;;6.03;3.20;;;15.40;99.90;;;;;;4126191;28;20221;-79
2022/10/28 02:21:12;;;;;;;8.77;3.33;;;15.40;99.90;;;;;;4132080;28;20214;-80
2022/10/28 02:23:21;;;;;;;6.37;3.60;;;15.40;99.90;;;;;;4147547;28;20221;-80
2022/10/28 02:25:30;;;;;;;7.20;3.50;;;15.40;99.90;;;;;;4132759;28;20233;-80
2022/10/28 02:27:39;;;;;;;8.70;3.70;;;15.40;99.90;;;;;;4131539;28;20209;-80
2022/10/28 02:29:48;;;;;;;6.73;3.30;;;15.40;99.90;;;;;;4128525;28;20209;-80
2022/10/28 02:31:55;;;;;;;8.07;3.50;;;15.30;99.90;;;;;;4130703;28;20223;-79
2022/10/28 02:34:02;;;;;;;6.80;3.63;;;15.30;99.90;;;;;;4134577;28;20215;-79
2022/10/28 02:36:07;;;;;;;6.27;3.60;;;15.30;99.90;;;;;;4133044;28;20206;-80
2022/10/28 02:38:14;;;;;;;6.77;3.10;;;15.30;99.90;;;;;;4131800;28;20660;-80
2022/10/28 02:40:21;;;;;;;6.87;3.27;;;15.30;99.90;;;;;;4131346;28;20691;-80
2022/10/28 02:42:27;;;;;;;7.53;3.37;;;15.30;99.90;;;;;;4136491;28;20209;-80
2022/10/28 02:44:33;;;;;;;6.33;3.23;;;15.30;99.90;;;;;;4132334;28;20242;-78
2022/10/28 02:46:39;;;;;;;6.07;3.30;;;15.20;99.90;;;;;;4133901;28;20680;-80
2022/10/28 02:48:44;;;;;;;10.10;4.20;;;15.20;99.90;;;;;;4147989;28;20204;-79
2022/10/28 02:50:50;;;;;;;6.00;3.57;;;15.20;99.90;;;;;;4135410;28;20214;-80
2022/10/28 02:52:56;;;;;;;7.23;3.43;;;15.20;99.90;;;;;;4134767;28;20584;-80
2022/10/28 02:55:00;;;;;;;8.70;3.33;;;15.10;99.90;;;;;;4134356;28;20226;-80
2022/10/28 02:57:06;;;;;;;6.93;3.33;;;15.10;99.90;;;;;;4131145;28;20213;-80
2022/10/28 02:59:10;;;;;;;8.33;3.40;;;15.10;99.90;;;;;;4134432;28;20218;-79
2022/10/28 03:01:12;;;;;;;9.97;3.73;;;15.10;99.90;;;;;;4134154;28;20201;-79
2022/10/28 03:03:14;;;;;;;6.40;3.20;;;15.10;99.90;;;;;;4133056;28;20243;-80
2022/10/28 03:05:16;;;;;;;6.73;3.20;;;15.10;99.90;;;;;;4133743;28;20511;-80
2022/10/28 03:07:20;;;;;;;5.83;3.13;;;15.10;99.90;;;;;;4132417;28;20209;-78
2022/10/28 03:09:22;;;;;;;6.67;3.40;;;15.10;99.90;;;;;;4133308;28;20639;-80
2022/10/28 03:11:23;;;;;;;6.03;3.40;;;15.10;99.90;;;;;;4132179;28;20834;-79
2022/10/28 03:13:25;;;;;;;4.47;3.00;;;15.00;99.90;;;;;;4133225;28;20214;-78
2022/10/28 03:15:27;;;;;;;5.17;3.00;;;15.00;99.90;;;;;;4134030;28;20311;-80
2022/10/28 03:17:29;;;;;;;7.87;3.27;;;15.00;99.90;;;;;;4132089;28;20281;-80
2022/10/28 03:19:31;;;;;;;5.53;3.27;;;15.00;99.90;;;;;;4149354;28;20235;-80
2022/10/28 03:21:33;;;;;;;6.60;3.67;;;15.00;99.90;;;;;;4134272;28;20214;-79
2022/10/28 03:23:36;;;;;;;7.80;2.97;;;15.00;99.90;;;;;;4134886;28;20360;-80
2022/10/28 03:25:38;;;;;;;5.27;2.80;;;15.00;99.90;;;;;;4132864;28;20225;-79
2022/10/28 03:27:40;;;;;;;5.47;3.27;;;15.00;99.90;;;;;;4133880;28;20247;-80
2022/10/28 03:29:42;;;;;;;6.73;3.67;;;15.00;99.90;;;;;;4133744;28;20203;-79
2022/10/28 03:31:44;;;;;;;4.93;2.93;;;15.00;99.90;;;;;;4129593;28;20232;-79
2022/10/28 03:33:46;;;;;;;4.73;2.83;;;14.90;99.90;;;;;;4134448;28;20297;-79
2022/10/28 03:35:48;;;;;;;6.67;2.87;;;15.00;99.90;;;;;;4135415;28;20740;-80
2022/10/28 03:37:50;;;;;;;7.37;2.90;;;15.00;99.90;;;;;;4134740;28;20241;-79
2022/10/28 03:39:53;;;;;;;6.47;3.30;;;14.90;99.90;;;;;;4134554;28;20265;-80
2022/10/28 03:41:55;;;;;;;7.73;3.23;;;14.90;99.90;;;;;;4135845;28;20201;-79
2022/10/28 03:43:57;;;;;;;7.07;3.63;;;14.90;99.90;;;;;;4132280;28;20224;-79
2022/10/28 03:45:59;;;;;;;7.17;2.97;;;14.80;99.90;;;;;;4134899;28;20233;-79
2022/10/28 03:48:01;;;;;;;6.13;3.20;;;14.90;99.90;;;;;;4150652;28;20201;-79
2022/10/28 03:50:03;;;;;;;8.30;3.63;;;14.80;99.90;;;;;;4136039;28;20728;-79
2022/10/28 03:52:05;;;;;;;5.20;3.33;;;14.80;99.90;;;;;;4137025;28;20588;-79
2022/10/28 03:54:07;;;;;;;7.60;3.23;;;14.80;99.90;;;;;;4136474;28;20267;-79
2022/10/28 03:56:11;;;;;;;5.93;3.20;;;14.80;99.90;;;;;;4139279;28;20211;-79
2022/10/28 03:58:13;;;;;;;7.10;3.30;;;14.80;99.90;;;;;;4138528;28;20199;-80
2022/10/28 04:00:16;;;;;;;10.30;3.70;;;14.80;99.90;;;;;;4135009;28;20291;-80
2022/10/28 04:02:18;;;;;;;6.60;3.10;;;14.80;99.90;;;;;;4130843;28;20202;-81
2022/10/28 04:04:20;;;;;;;5.50;3.10;;;14.80;99.90;;;;;;4132279;28;20219;-80
2022/10/28 04:06:22;;;;;;;7.37;3.33;;;14.80;99.90;;;;;;4131390;28;20301;-80
2022/10/28 04:08:23;;;;;;;6.07;3.30;;;14.80;99.90;;;;;;4131150;28;20214;-80
2022/10/28 04:10:28;;;;;;;10.03;3.80;;;14.70;99.90;;;;;;4133303;28;20227;-80
2022/10/28 04:12:31;;;;;;;10.23;3.77;;;14.70;99.90;;;;;;4131739;28;20638;-80
2022/10/28 04:14:33;;;;;;;5.63;3.37;;;14.70;99.90;;;;;;4132617;28;20230;-79
2022/10/28 04:16:35;;;;;;;7.67;3.23;;;14.70;99.90;;;;;;4133195;28;20248;-79
2022/10/28 04:18:37;;;;;;;8.33;3.50;;;14.70;99.90;;;;;;4134755;28;20218;-80
2022/10/28 04:20:39;;;;;;;6.53;3.73;;;14.70;99.90;;;;;;4133367;28;20554;-79
2022/10/28 04:22:41;;;;;;;8.77;3.83;;;14.70;99.90;;;;;;4136351;28;20309;-80
2022/10/28 04:24:43;;;;;;;6.90;3.10;;;14.70;99.90;;;;;;4129852;28;20237;-79
2022/10/28 04:26:44;;;;;;;6.83;3.40;;;14.60;99.90;;;;;;4133573;28;20549;-81
2022/10/28 04:28:48;;;;;;;9.40;3.77;;;14.70;99.90;;;;;;4130656;28;20212;-79
2022/10/28 04:30:50;;;;;;;5.53;3.40;;;14.60;99.90;;;;;;4133656;28;20201;-79
2022/10/28 04:32:51;;;;;;;6.00;3.37;;;14.60;99.90;;;;;;4135799;28;20218;-80
2022/10/28 04:34:53;;;;;;;7.17;3.60;;;14.60;99.90;;;;;;4136399;28;20223;-80
2022/10/28 04:36:55;;;;;;;9.37;4.53;;;14.60;99.90;;;;;;4138338;28;20213;-80
2022/10/28 04:38:57;;;;;;;6.43;3.80;;;14.60;99.90;;;;;;4133360;28;20604;-80
2022/10/28 04:40:59;;;;;;;8.97;3.70;;;14.50;99.90;;;;;;4134881;28;20211;-79
2022/10/28 04:43:00;;;;;;;7.10;3.40;;;14.50;99.90;;;;;;4137462;28;20579;-80
2022/10/28 04:45:04;;;;;;;9.17;4.27;;;14.50;99.90;;;;;;4134557;28;20247;-79
2022/10/28 04:47:06;;;;;;;9.23;3.70;;;14.50;99.90;;;;;;4136284;28;20211;-80
2022/10/28 04:49:08;;;;;;;5.50;3.20;;;14.50;99.90;;;;;;4135583;28;20243;-80
2022/10/28 04:51:10;;;;;;;7.07;3.80;;;14.50;99.90;;;;;;4135988;28;20213;-79
2022/10/28 04:53:12;;;;;;;5.47;3.30;;;14.50;99.90;;;;;;4134949;28;20257;-80
2022/10/28 04:55:14;;;;;;;7.03;3.70;;;14.50;99.90;;;;;;4136416;28;20238;-79
2022/10/28 04:57:16;;;;;;;8.73;3.60;;;14.40;99.90;;;;;;4136007;28;20197;-80
2022/10/28 04:59:18;;;;;;;11.80;3.97;;;14.40;99.90;;;;;;4136553;28;20217;-79
2022/10/28 05:01:21;;;;;;;10.00;4.20;;;14.40;99.90;;;;;;4136890;28;20288;-79
2022/10/28 05:03:23;;;;;;;9.97;4.00;;;14.40;99.90;;;;;;4138233;28;20205;-80
2022/10/28 05:05:25;;;;;;;6.50;3.23;;;14.40;99.90;;;;;;4134679;28;20260;-78
2022/10/28 05:07:27;;;;;;;8.53;3.60;;;14.40;99.90;;;;;;4135106;28;20212;-79
2022/10/28 05:09:28;;;;;;;6.90;3.40;;;14.40;99.90;;;;;;4133668;28;20211;-79
2022/10/28 05:11:30;;;;;;;7.10;3.57;;;14.40;99.90;;;;;;4131397;28;20224;-80
2022/10/28 05:13:32;;;;;;;6.53;3.60;;;14.40;99.90;;;;;;4133129;28;20224;-80
2022/10/28 05:15:34;;;;;;;6.37;3.33;;;14.40;99.90;;;;;;4135278;28;20241;-82
2022/10/28 05:17:38;;;;;;;7.57;3.47;;;14.40;99.90;;;;;;4133138;28;20303;-81
2022/10/28 05:19:41;;;;;;;7.13;3.80;;;14.40;99.90;;;;;;4134155;28;20788;-82
2022/10/28 05:21:42;;;;;;;5.50;3.33;;;14.40;99.90;;;;;;4137106;28;20284;-82
2022/10/28 05:23:45;;;;;;;9.23;3.77;;;14.40;99.90;;;;;;4131994;28;20233;-81
2022/10/28 05:25:47;;;;;;;9.87;3.60;;;14.40;99.90;;;;;;4134152;28;20228;-81
2022/10/28 05:27:50;;;;;;;6.73;3.47;;;14.30;99.90;;;;;;4138792;28;20228;-81
2022/10/28 05:29:51;;;;;;;8.53;3.43;;;14.30;99.90;;;;;;4135583;28;20200;-80
2022/10/28 05:31:53;;;;;;;5.87;2.90;;;14.40;99.90;;;;;;4138154;28;20196;-81
2022/10/28 05:33:57;;;;;;;6.87;3.40;;;14.40;99.90;;;;;;4140839;28;20229;-82
2022/10/28 05:35:59;;;;;;;8.07;3.30;;;14.40;99.90;;;;;;4136405;28;20335;-82
2022/10/28 05:38:01;;;;;;;10.90;3.77;;;14.30;99.90;;;;;;4137257;28;20225;-82
2022/10/28 05:40:04;;;;;;;6.23;3.47;;;14.40;99.90;;;;;;4141270;28;20235;-82
2022/10/28 05:42:06;;;;;;;6.60;2.83;;;14.40;99.90;;;;;;4138231;28;20209;-82
2022/10/28 05:44:07;;;;;;;4.87;3.40;;;14.40;99.90;;;;;;4141366;28;20212;-81
2022/10/28 05:46:10;;;;;;;8.93;3.43;;;14.40;99.90;;;;;;4139040;28;20783;-81
2022/10/28 05:48:12;;;;;;;9.10;3.60;;;14.40;99.90;;;;;;4140084;28;20208;-82
2022/10/28 05:50:17;;;;;;;7.67;3.40;;;14.40;99.90;;;;;;4140212;28;20212;-81
2022/10/28 05:52:20;;;;;;;4.67;2.90;;;14.40;99.90;;;;;;4154315;28;20214;-80
2022/10/28 05:54:21;;;;;;;7.03;3.50;;;14.50;99.90;;;;;;4138216;28;20216;-82
2022/10/28 05:56:23;;;;;;;6.20;3.27;;;14.50;99.90;;;;;;4131752;28;20256;-82
2022/10/28 05:58:25;;;;;;;8.30;4.43;;;14.40;99.90;;;;;;4138231;28;20309;-81
2022/10/28 06:00:28;;;;;;;11.63;4.93;;;14.30;99.90;;;;;;4152484;28;20221;-81
2022/10/28 06:02:30;;;;;;;8.00;4.40;;;14.50;99.90;;;;;;4133579;28;20303;-81
2022/10/28 06:04:32;;;;;;;7.67;3.57;;;15.00;99.90;;;;;;4139105;28;20241;-81
2022/10/28 06:06:35;;;;;;;9.13;3.30;;;14.40;99.90;;;;;;4138481;28;20216;-81
2022/10/28 06:08:37;;;;;;;8.07;3.80;;;14.40;99.90;;;;;;4140076;28;20216;-81
2022/10/28 06:10:39;;;;;;;8.00;3.30;;;14.40;99.90;;;;;;4141678;28;20653;-80
2022/10/28 06:12:41;;;;;;;7.93;3.53;;;14.40;99.90;;;;;;4140653;28;20244;-81
2022/10/28 06:14:43;;;;;;;6.07;3.27;;;14.50;99.90;;;;;;4132553;28;20236;-80
2022/10/28 06:16:46;;;;;;;7.80;3.80;;;14.40;99.90;;;;;;4139529;28;20218;-80
2022/10/28 06:18:47;;;;;;;6.30;3.70;;;14.40;99.90;;;;;;4139201;28;20229;-80
2022/10/28 06:20:54;;;;;;;7.43;3.50;;;14.50;99.90;;;;;;4139896;28;20233;-80
2022/10/28 06:22:57;;;;;;;6.70;3.63;;;14.40;99.90;;;;;;4131351;28;21001;-82
2022/10/28 06:24:59;;;;;;;8.47;3.67;;;14.40;99.90;;;;;;4135646;28;20263;-83
2022/10/28 06:27:01;;;;;;;10.07;4.20;;;14.40;99.90;;;;;;4132416;28;20658;-82
2022/10/28 06:29:03;;;;;;;7.40;3.30;;;14.40;99.90;;;;;;4129968;28;20206;-84
2022/10/28 06:31:07;;;;;;;6.93;3.70;;;14.40;99.90;;;;;;4126684;28;20301;-81
2022/10/28 06:33:09;;;;;;;7.20;3.30;;;14.40;99.90;;;;;;4130043;28;20629;-79
2022/10/28 06:35:10;;;;;;;8.40;3.90;;;14.40;99.90;;;;;;4143333;28;20336;-80
2022/10/28 06:37:13;;;;;;;9.80;4.03;;;14.50;99.90;;;;;;4144148;28;20244;-81
2022/10/28 06:39:16;;;;;;;5.50;3.33;;;14.50;99.90;;;;;;4139822;28;20213;-80
2022/10/28 06:41:18;;;;;;;5.93;3.50;;;14.50;99.90;;;;;;4137774;28;20301;-80
2022/10/28 06:43:20;;;;;;;10.07;3.60;;;14.50;99.90;;;;;;4139294;28;20219;-80
2022/10/28 06:45:21;;;;;;;8.10;3.40;;;14.50;99.90;;;;;;4138274;28;20226;-81
2022/10/28 06:47:23;;;;;;;7.50;3.30;;;14.50;99.90;;;;;;4138300;28;20802;-80
2022/10/28 06:49:25;;;;;;;6.73;3.20;;;14.40;99.90;;;;;;4133503;28;20770;-80
2022/10/28 06:51:27;;;;;;;7.77;3.60;;;14.50;99.90;;;;;;4135290;28;20240;-80
2022/10/28 06:53:29;;;;;;;7.37;3.50;;;14.60;99.90;;;;;;4136922;28;20253;-80
2022/10/28 06:55:32;;;;;;;7.87;3.43;;;14.60;99.90;;;;;;4134054;28;20265;-81
2022/10/28 06:57:34;;;;;;;8.03;3.30;;;14.60;99.90;;;;;;4154704;28;20210;-80
2022/10/28 06:59:36;;;;;;;8.70;3.77;;;14.60;99.90;;;;;;4140229;28;20208;-80
2022/10/28 07:01:38;;;;;;;6.00;3.10;;;14.60;99.90;;;;;;4137545;28;20212;-81
2022/10/28 07:03:41;;;;;;;7.90;3.60;;;14.70;99.90;;;;;;4137383;28;20220;-80
2022/10/28 07:05:43;;;;;;;7.07;3.80;;;14.70;99.90;;;;;;4139184;28;20257;-80
2022/10/28 07:07:45;;;;;;;7.43;3.43;;;14.80;99.90;;;;;;4140218;28;20215;-80
2022/10/28 07:09:47;;;;;;;8.93;3.60;;;14.80;99.90;;;;;;4130898;28;20287;-79
2022/10/28 07:11:50;;;;;;;3.67;3.03;;;14.80;99.90;;;;;;4140988;28;20202;-80
2022/10/28 07:13:52;;;;;;;7.80;3.33;;;14.90;99.90;;;;;;4139934;28;20228;-79
2022/10/28 07:15:55;;;;;;;6.80;3.30;;;14.90;99.90;;;;;;4138987;28;20246;-81
2022/10/28 07:17:58;;;;;;;5.73;3.20;;;15.00;99.90;;;;;;4139682;28;20303;-80
2022/10/28 07:20:00;;;;;;;6.00;2.97;;;15.00;99.90;;;;;;4141087;28;20231;-81
2022/10/28 07:22:03;;;;;;;8.27;3.50;;;15.10;99.90;;;;;;4141654;28;20206;-79
2022/10/28 07:24:06;;;;;;;9.17;3.90;;;15.20;99.90;;;;;;4139966;28;20202;-80
2022/10/28 07:26:07;;;;;;;11.90;3.33;;;15.20;99.90;;;;;;4141072;28;20763;-80
2022/10/28 07:28:11;;;;;;;8.27;3.50;;;15.20;99.90;;;;;;4140997;28;20211;-80
2022/10/28 07:30:13;;;;;;;7.57;3.40;;;15.30;99.90;;;;;;4141104;28;20235;-79
2022/10/28 07:32:15;;;;;;;7.97;3.27;;;15.40;99.90;;;;;;4142116;28;20254;-79
2022/10/28 07:34:19;;;;;;;10.37;3.03;;;15.40;99.90;;;;;;4158159;28;20682;-79
2022/10/28 07:36:21;;;;;;;8.40;3.30;;;15.50;99.90;;;;;;4141682;28;20204;-80
2022/10/28 07:38:23;;;;;;;7.40;3.40;;;15.50;99.90;;;;;;4158327;28;20219;-80
2022/10/28 07:40:25;;;;;;;7.87;3.00;;;15.60;99.90;;;;;;4140001;28;20204;-80
2022/10/28 07:42:27;;;;;;;6.53;3.20;;;15.60;99.90;;;;;;4140963;28;20239;-80
2022/10/28 07:44:31;;;;;;;8.50;3.10;;;15.70;99.90;;;;;;4139556;28;20225;-81
2022/10/28 07:46:33;;;;;;;5.70;3.00;;;15.70;99.90;;;;;;4141147;28;20212;-76
2022/10/28 07:48:36;;;;;;;8.73;3.53;;;15.70;99.90;;;;;;4159036;28;20202;-80
2022/10/28 07:50:42;;;;;;;5.73;3.17;;;15.80;99.90;;;;;;4140227;28;20211;-80
2022/10/28 07:52:44;;;;;;;6.40;2.70;;;15.80;99.90;;;;;;4140184;28;20690;-81
2022/10/28 07:54:50;;;;;;;7.23;3.23;;;15.80;99.90;;;;;;4137499;28;20229;-80
2022/10/28 07:56:52;;;;;;;9.10;3.27;;;15.90;99.90;;;;;;4139246;28;20262;-82
2022/10/28 07:58:54;;;;;;;6.70;3.00;;;16.00;99.90;;;;;;4134393;28;20303;-81
2022/10/28 08:01:02;;;;;;;6.30;2.87;;;16.00;99.90;;;;;;4133992;28;21009;-82
2022/10/28 08:03:04;;;;;;;8.23;3.40;;;16.00;99.90;;;;;;4136023;28;20208;-80
2022/10/28 08:05:06;;;;;;;5.17;2.80;;;16.10;99.90;;;;;;4133751;28;20321;-81
2022/10/28 08:07:08;;;;;;;5.73;2.87;;;16.10;99.90;;;;;;4139231;28;20208;-82
2022/10/28 08:09:10;;;;;;;6.97;3.30;;;16.10;99.90;;;;;;4139395;28;20228;-81
2022/10/28 08:11:12;;;;;;;7.83;2.83;;;16.20;99.90;;;;;;4137907;28;20287;-81
2022/10/28 08:13:14;;;;;;;7.97;2.90;;;16.20;99.90;;;;;;4137043;28;20204;-81
2022/10/28 08:15:17;;;;;;;6.00;3.07;;;16.30;99.90;;;;;;4138043;28;20299;-81
2022/10/28 08:17:20;;;;;;;5.93;2.63;;;16.30;99.90;;;;;;4138275;28;20243;-81
2022/10/28 08:19:22;;;;;;;7.57;3.00;;;16.40;99.90;;;;;;4139626;28;20284;-80
2022/10/28 08:21:25;;;;;;;5.40;3.27;;;16.40;99.90;;;;;;4136556;28;20586;-81
2022/10/28 08:23:28;;;;;;;5.57;3.03;;;16.40;99.90;;;;;;4136728;28;20293;-80
2022/10/28 08:25:29;;;;;;;5.33;2.60;;;16.50;99.90;;;;;;4136837;28;20251;-80
2022/10/28 08:27:31;;;;;;;5.53;2.80;;;16.50;99.90;;;;;;4138589;28;20232;-81
2022/10/28 08:29:33;;;;;;;6.23;2.97;;;16.60;99.90;;;;;;4137387;28;20304;-81
2022/10/28 08:31:35;;;;;;;3.97;2.50;;;16.60;99.90;;;;;;4135394;28;20323;-81
2022/10/28 08:33:41;;;;;;;8.33;2.90;;;16.60;99.90;;;;;;4136443;28;20772;-81
2022/10/28 08:35:42;;;;;;;5.70;2.90;;;16.60;99.90;;;;;;4136754;28;20231;-81
2022/10/28 08:37:51;;;;;;;6.10;3.10;;;16.70;99.90;;;;;;4134732;28;20216;-81
2022/10/28 08:39:52;;;;;;;10.47;4.70;;;16.70;99.90;;;;;;4135077;28;20207;-81
2022/10/28 08:42:06;;;;;;;10.73;5.50;;;16.80;99.90;;;;;;4136500;28;20802;-80
2022/10/28 08:44:45;;;;;;;7.53;3.70;;;16.80;99.90;;;;;;4135217;28;20212;-80
2022/10/28 08:46:59;;;;;;;6.13;3.40;;;16.80;99.90;;;;;;4136567;28;20258;-81
2022/10/28 08:49:03;;;;;;;6.07;3.27;;;16.90;99.90;;;;;;4154308;28;20204;-81
2022/10/28 08:51:12;;;;;;;5.23;3.00;;;16.90;99.90;;;;;;4138866;28;20223;-81
2022/10/28 08:53:19;;;;;;;4.97;2.63;;;16.90;99.90;;;;;;4142085;28;20291;-80
2022/10/28 08:55:25;;;;;;;3.50;2.70;;;17.00;99.90;;;;;;4141939;28;20320;-81
2022/10/28 08:57:34;;;;;;;3.73;2.60;;;16.90;99.90;;;;;;4142263;28;20213;-80
2022/10/28 08:59:40;;;;;;;7.03;3.03;;;17.00;99.90;;;;;;4147282;28;20205;-79
2022/10/28 09:01:47;;;;;;;4.33;2.67;;;17.10;99.90;;;;;;4142774;28;20462;-79
2022/10/28 09:03:52;;;;;;;7.10;2.70;;;17.10;99.90;;;;;;4141696;28;20209;-79
2022/10/28 09:06:00;;;;;;;7.60;3.07;;;17.10;99.90;;;;;;4140189;28;20244;-81
2022/10/28 09:08:03;;;;;;;4.57;2.70;;;17.20;99.90;;;;;;4138915;28;20214;-81
2022/10/28 09:10:06;;;;;;;5.27;2.83;;;17.20;99.90;;;;;;4134944;28;20213;-79
2022/10/28 09:12:21;;;;;;;5.47;2.93;;;17.20;99.90;;;;;;4139297;28;20211;-80
2022/10/28 09:14:40;;;;;;;7.27;3.20;;;17.30;99.90;;;;;;4142824;28;20234;-78
2022/10/28 09:16:46;;;;;;;6.13;3.50;;;17.30;99.90;;;;;;4151007;28;20221;-80
2022/10/28 09:18:53;;;;;;;10.63;3.67;;;17.30;99.90;;;;;;4145241;28;20207;-79
2022/10/28 09:20:57;;;;;;;7.70;2.90;;;17.30;99.90;;;;;;4140866;28;20206;-81
2022/10/28 09:23:03;;;;;;;7.03;2.83;;;17.30;99.90;;;;;;4142058;28;20207;-80
2022/10/28 09:25:17;;;;;;;7.80;3.20;;;17.40;99.90;;;;;;4136417;28;20562;-79
2022/10/28 09:27:42;;;;;;;5.33;2.77;;;17.40;99.90;;;;;;4141218;28;20209;-80
2022/10/28 09:29:56;;;;;;;6.57;3.20;;;17.50;99.90;;;;;;4141319;28;20201;-80
2022/10/28 09:32:04;;;;;;;6.33;2.90;;;17.60;99.90;;;;;;4140348;28;20278;-79
2022/10/28 09:34:16;;;;;;;8.37;3.60;;;17.60;99.90;;;;;;4138494;28;20305;-79
2022/10/28 09:36:25;;;;;;;9.50;3.30;;;17.70;99.90;;;;;;4141402;28;20210;-81
2022/10/28 09:38:30;;;;;;;6.40;3.43;;;17.80;99.90;;;;;;4141333;28;20731;-80
2022/10/28 09:40:36;;;;;;;5.00;2.63;;;17.90;99.90;;;;;;4139477;28;20213;-80
2022/10/28 09:42:43;;;;;;;8.93;2.80;;;18.00;99.90;;;;;;4137660;28;20219;-80
2022/10/28 09:44:49;;;;;;;8.97;2.73;;;18.00;99.90;;;;;;4138057;28;20709;-80
2022/10/28 09:46:55;;;;;;;7.50;3.30;;;18.10;99.90;;;;;;4136706;28;20619;-81
2022/10/28 09:49:01;;;;;;;7.53;3.30;;;18.20;99.90;;;;;;4138254;28;20214;-81
2022/10/28 09:51:03;;;;;;;6.30;3.13;;;18.30;99.90;;;;;;4135792;28;20283;-81
2022/10/28 09:53:14;;;;;;;6.10;3.00;;;18.30;99.90;;;;;;4139061;28;21064;-80
2022/10/28 09:55:22;;;;;;;6.57;3.10;;;18.40;99.90;;;;;;4138908;28;20231;-77
2022/10/28 09:57:30;;;;;;;6.03;2.40;;;18.50;99.90;;;;;;4135379;28;20653;-78
2022/10/28 09:59:33;;;;;;;3.97;2.20;;;18.50;99.90;;;;;;4133377;28;20210;-81
2022/10/28 10:01:36;;;;;;;5.80;3.03;;;18.60;99.90;;;;;;4131229;28;20242;-80
2022/10/28 10:03:40;;;;;;;4.70;2.53;;;18.60;99.90;;;;;;4133521;28;20283;-79
2022/10/28 10:05:44;;;;;;;3.60;2.53;;;18.70;99.90;;;;;;4131077;28;20236;-80
2022/10/28 10:07:50;;;;;;;8.20;2.63;;;18.70;99.90;;;;;;4131461;28;20772;-77
2022/10/28 10:09:53;;;;;;;6.23;3.17;;;18.80;99.90;;;;;;4132611;28;20391;-80
2022/10/28 10:11:59;;;;;;;7.57;2.80;;;18.80;99.90;;;;;;4134651;28;20288;-79
2022/10/28 10:14:07;;;;;;;3.63;2.40;;;18.90;99.90;;;;;;4129793;28;20238;-78
2022/10/28 10:16:17;;;;;;;5.77;2.53;;;18.90;99.90;;;;;;4133748;28;20216;-80
2022/10/28 10:18:23;;;;;;;8.10;2.83;;;18.90;99.90;;;;;;4132100;28;20211;-79
2022/10/28 10:20:25;;;;;;;6.10;2.70;;;19.10;99.90;;;;;;4131804;28;20205;-80
2022/10/28 10:22:32;;;;;;;5.33;2.37;;;19.00;99.90;;;;;;4134938;28;20303;-77
2022/10/28 10:24:35;;;;;;;6.07;2.40;;;19.10;99.90;;;;;;4133814;28;20220;-79
2022/10/28 10:26:39;;;;;;;5.63;2.63;;;19.10;99.90;;;;;;4133781;28;20296;-78
2022/10/28 10:28:45;;;;;;;6.10;2.60;;;19.10;99.90;;;;;;4127539;28;20686;-79
2022/10/28 10:30:51;;;;;;;4.87;2.50;;;19.20;99.90;;;;;;4136341;28;20259;-80
2022/10/28 10:32:53;;;;;;;4.07;2.60;;;19.30;99.90;;;;;;4126526;28;20217;-78
2022/10/28 10:35:02;;;;;;;6.70;2.90;;;19.30;99.90;;;;;;4130639;28;20239;-79
2022/10/28 10:37:04;;;;;;;7.20;2.90;;;19.30;99.90;;;;;;4134574;28;20219;-78
2022/10/28 10:39:25;;;;;;;6.73;2.57;;;19.40;99.90;;;;;;4128571;28;20212;-77
2022/10/28 10:41:34;;;;;;;4.70;2.70;;;19.40;99.90;;;;;;4134144;28;20227;-77
2022/10/28 10:43:38;;;;;;;5.53;2.87;;;19.40;99.90;;;;;;4136594;28;20822;-78
2022/10/28 10:45:40;;;;;;;7.03;3.07;;;19.40;99.90;;;;;;4138570;28;20224;-78
2022/10/28 10:47:42;;;;;;;8.47;2.30;;;19.50;99.90;;;;;;4138275;28;20212;-79